createdAt,value
2023-01-17T00:02:05.930Z,61.84
2023-01-17T00:04:52.192Z,64.32
2023-01-17T00:07:38.649Z,62.31
2023-01-17T00:10:10.568Z,60.63
2023-01-17T00:12:37.853Z,62.42
2023-01-17T00:15:05.581Z,59.42
2023-01-17T00:17:33.016Z,60.49
2023-01-17T00:20:20.222Z,62.24
2023-01-17T00:23:23.092Z,63.97
2023-01-17T00:26:05.569Z,63.84
2023-01-17T00:28:34.136Z,61.46
2023-01-17T00:31:01.377Z,61.38
2023-01-17T00:33:28.544Z,58.38
2023-01-17T00:35:56.647Z,56.77
2023-01-17T00:38:24.961Z,59.03
2023-01-17T00:40:52.188Z,58.07
2023-01-17T00:43:38.766Z,58.14
2023-01-17T00:46:24.867Z,59.57
2023-01-17T00:49:11.192Z,56.72
2023-01-17T00:51:56.780Z,55.85
2023-01-17T00:54:43.048Z,60.71
2023-01-17T00:57:28.745Z,56.91
2023-01-17T01:00:14.922Z,56.77
2023-01-17T01:03:00.680Z,55.39
2023-01-17T01:05:46.761Z,61.38
2023-01-17T01:08:35.754Z,61.62
2023-01-17T01:11:32.574Z,57.82
2023-01-17T01:14:19.534Z,55.07
2023-01-17T01:17:05.680Z,57.95
2023-01-17T01:19:51.705Z,57.39
2023-01-17T01:22:38.125Z,58.48
2023-01-17T01:25:24.332Z,60.77
2023-01-17T01:28:10.562Z,58.88
2023-01-17T01:30:56.636Z,63.42
2023-01-17T01:33:24.015Z,60.38
2023-01-17T01:35:54.439Z,61.33
2023-01-17T01:38:24.902Z,63.43
2023-01-17T01:40:53.418Z,63.42
2023-01-17T01:43:40.822Z,64.93
2023-01-17T01:46:08.248Z,65.00
2023-01-17T01:48:35.985Z,63.70
2023-01-17T01:51:04.240Z,61.80
2023-01-17T01:53:32.355Z,59.95
2023-01-17T01:55:59.533Z,59.50
2023-01-17T01:58:27.920Z,62.61
2023-01-17T02:00:55.417Z,61.46
2023-01-17T02:03:24.622Z,60.53
2023-01-17T02:05:51.871Z,59.17
2023-01-17T02:08:19.952Z,60.44
2023-01-17T02:10:47.665Z,58.63
2023-01-17T02:13:16.177Z,61.90
2023-01-17T02:15:49.305Z,61.93
2023-01-17T02:18:21.687Z,63.87
2023-01-17T02:21:12.200Z,60.70
2023-01-17T02:23:48.887Z,59.94
2023-01-17T02:26:35.390Z,61.32
2023-01-17T02:29:18.700Z,65.12
2023-01-17T02:31:47.341Z,63.14
2023-01-17T02:34:17.394Z,63.85
2023-01-17T02:37:04.951Z,62.47
2023-01-17T02:39:40.255Z,61.59
2023-01-17T02:42:09.031Z,62.17
2023-01-17T02:44:40.084Z,64.59
2023-01-17T02:47:22.970Z,63.20
2023-01-17T02:49:51.000Z,63.38
2023-01-17T02:52:18.115Z,63.12
2023-01-17T02:55:03.479Z,62.75
2023-01-17T02:57:44.446Z,60.82
2023-01-17T03:00:22.454Z,59.32
2023-01-17T03:02:55.087Z,59.33
2023-01-17T03:05:24.193Z,60.43
2023-01-17T03:07:51.801Z,57.25
2023-01-17T03:10:19.352Z,61.78
2023-01-17T03:12:46.490Z,62.05
2023-01-17T03:15:14.728Z,58.74
2023-01-17T03:17:42.977Z,61.58
2023-01-17T03:20:10.449Z,59.18
2023-01-17T03:22:37.850Z,63.54
2023-01-17T03:25:05.596Z,60.22
2023-01-17T03:27:32.747Z,61.93
2023-01-17T03:30:00.195Z,60.60
2023-01-17T03:32:27.559Z,58.94
2023-01-17T03:34:54.709Z,60.13
2023-01-17T03:37:22.139Z,58.30
2023-01-17T03:39:49.300Z,56.66
2023-01-17T03:42:19.156Z,59.05
2023-01-17T03:44:46.583Z,60.03
2023-01-17T03:47:13.725Z,58.97
2023-01-17T03:49:40.904Z,57.77
2023-01-17T03:52:08.340Z,56.45
2023-01-17T03:54:35.534Z,55.93
2023-01-17T03:57:02.681Z,55.19
2023-01-17T03:59:30.100Z,54.67
2023-01-17T04:01:57.255Z,54.79
2023-01-17T04:04:24.762Z,54.99
2023-01-17T04:06:51.917Z,53.98
2023-01-17T04:09:19.384Z,54.73
2023-01-17T04:11:50.858Z,56.69
2023-01-17T04:14:18.189Z,54.26
2023-01-17T04:16:45.410Z,55.50
2023-01-17T04:19:12.908Z,55.19
2023-01-17T04:21:40.068Z,54.73
2023-01-17T04:24:07.423Z,54.51
2023-01-17T04:26:34.869Z,55.12
2023-01-17T04:29:02.005Z,56.92
2023-01-17T04:31:29.193Z,54.80
2023-01-17T04:33:56.664Z,58.15
2023-01-17T04:36:23.791Z,56.01
2023-01-17T04:38:50.938Z,56.55
2023-01-17T04:41:18.379Z,55.27
2023-01-17T04:43:45.526Z,54.77
2023-01-17T04:46:12.809Z,54.57
2023-01-17T04:48:40.403Z,54.79
2023-01-17T04:51:07.586Z,53.28
2023-01-17T04:53:34.755Z,55.70
2023-01-17T04:56:02.230Z,55.31
2023-01-17T04:58:29.409Z,54.08
2023-01-17T05:01:00.551Z,54.59
2023-01-17T05:03:29.488Z,55.93
2023-01-17T05:05:56.672Z,54.99
2023-01-17T05:08:23.920Z,54.15
2023-01-17T05:10:51.335Z,55.48
2023-01-17T05:13:18.592Z,56.83
2023-01-17T05:15:46.973Z,55.77
2023-01-17T05:18:15.180Z,55.76
2023-01-17T05:20:42.530Z,56.18
2023-01-17T05:23:09.764Z,56.09
2023-01-17T05:25:37.189Z,56.19
2023-01-17T05:28:04.487Z,56.26
2023-01-17T05:30:32.296Z,55.20
2023-01-17T05:32:59.781Z,54.33
2023-01-17T05:35:28.587Z,55.91
2023-01-17T05:37:56.037Z,56.00
2023-01-17T05:40:24.827Z,53.84
2023-01-17T05:42:52.708Z,54.32
2023-01-17T05:45:20.413Z,53.57
2023-01-17T05:47:48.868Z,54.82
2023-01-17T05:50:17.421Z,54.99
2023-01-17T05:52:54.852Z,54.17
2023-01-17T05:55:22.522Z,55.39
2023-01-17T05:57:50.284Z,56.44
2023-01-17T06:00:17.626Z,57.34
2023-01-17T06:02:45.426Z,56.68
2023-01-17T06:05:12.764Z,56.24
2023-01-17T06:07:39.903Z,55.90
2023-01-17T06:10:07.489Z,55.71
2023-01-17T06:12:34.632Z,55.68
2023-01-17T06:15:01.785Z,55.82
2023-01-17T06:17:29.199Z,57.70
2023-01-17T06:19:56.373Z,57.71
2023-01-17T06:22:23.529Z,58.69
2023-01-17T06:24:50.976Z,60.20
2023-01-17T06:27:18.167Z,58.08
2023-01-17T06:29:45.301Z,57.46
2023-01-17T06:32:14.165Z,59.38
2023-01-17T06:34:41.411Z,59.27
2023-01-17T06:37:08.563Z,58.64
2023-01-17T06:39:35.958Z,57.43
2023-01-17T06:42:03.208Z,58.64
2023-01-17T06:44:30.363Z,58.48
2023-01-17T06:46:57.830Z,57.63
2023-01-17T06:49:25.510Z,57.84
2023-01-17T06:51:52.628Z,58.65
2023-01-17T06:54:20.072Z,57.14
2023-01-17T06:56:47.197Z,57.38
2023-01-17T06:59:14.341Z,57.05
2023-01-17T07:01:41.963Z,56.98
2023-01-17T07:04:09.280Z,56.49
2023-01-17T07:06:36.941Z,55.98
2023-01-17T07:09:04.458Z,55.34
2023-01-17T07:11:31.704Z,56.66
2023-01-17T07:13:58.871Z,56.53
2023-01-17T07:16:26.384Z,55.85
2023-01-17T07:18:54.831Z,56.62
2023-01-17T07:21:22.634Z,55.41
2023-01-17T07:23:50.135Z,54.65
2023-01-17T07:26:17.410Z,54.54
2023-01-17T07:28:44.563Z,54.69
2023-01-17T07:31:12.163Z,55.01
2023-01-17T07:33:39.333Z,55.31
2023-01-17T07:36:07.470Z,54.06
2023-01-17T07:38:35.177Z,54.65
2023-01-17T07:41:02.459Z,55.13
2023-01-17T07:43:29.615Z,53.04
2023-01-17T07:45:57.294Z,54.28
2023-01-17T07:48:24.617Z,58.14
2023-01-17T07:50:55.477Z,56.27
2023-01-17T07:53:23.702Z,53.83
2023-01-17T07:55:51.796Z,53.82
2023-01-17T07:58:19.197Z,54.09
2023-01-17T08:00:46.822Z,54.90
2023-01-17T08:03:15.350Z,53.13
2023-01-17T08:05:42.988Z,52.53
2023-01-17T08:08:10.210Z,53.81
2023-01-17T08:10:37.658Z,52.88
2023-01-17T08:13:04.911Z,52.85
2023-01-17T08:15:32.311Z,51.87
2023-01-17T08:18:00.210Z,55.70
2023-01-17T08:20:28.126Z,52.41
2023-01-17T08:22:56.200Z,54.76
2023-01-17T08:25:24.206Z,55.88
2023-01-17T08:27:51.896Z,52.66
2023-01-17T08:30:19.023Z,52.02
2023-01-17T08:32:46.464Z,57.13
2023-01-17T08:35:14.167Z,53.03
2023-01-17T08:37:41.861Z,50.57
2023-01-17T08:40:11.060Z,50.53
2023-01-17T08:42:39.368Z,50.24
2023-01-17T08:45:07.291Z,50.07
2023-01-17T08:47:34.766Z,51.95
2023-01-17T08:50:02.329Z,50.95
2023-01-17T08:52:29.508Z,48.67
2023-01-17T08:54:56.979Z,48.58
2023-01-17T08:57:24.122Z,49.64
2023-01-17T08:59:51.299Z,48.14
2023-01-17T09:02:19.423Z,47.84
2023-01-17T09:04:46.929Z,48.04
2023-01-17T09:07:14.590Z,47.64
2023-01-17T09:09:42.076Z,45.69
2023-01-17T09:12:09.247Z,45.95
2023-01-17T09:14:37.502Z,48.99
2023-01-17T09:17:06.848Z,48.55
2023-01-17T09:19:35.484Z,48.26
2023-01-17T09:22:04.349Z,51.40
2023-01-17T09:24:32.781Z,49.35
2023-01-17T09:27:00.220Z,49.13
2023-01-17T09:29:27.624Z,48.55
2023-01-17T09:31:55.053Z,48.99
2023-01-17T09:34:24.193Z,50.21
2023-01-17T09:36:51.368Z,48.63
2023-01-17T09:39:18.883Z,47.52
2023-01-17T09:41:51.845Z,49.08
2023-01-17T09:44:29.425Z,50.67
2023-01-17T09:46:58.149Z,49.09
2023-01-17T09:49:38.089Z,48.29
2023-01-17T09:52:05.574Z,50.43
2023-01-17T09:54:34.410Z,48.50
2023-01-17T09:57:09.169Z,47.99
2023-01-17T09:59:45.621Z,49.23
2023-01-17T10:02:31.478Z,47.86
2023-01-17T10:05:02.006Z,47.95
2023-01-17T10:07:52.284Z,46.85
2023-01-17T10:10:49.000Z,47.14
2023-01-17T10:13:18.947Z,51.37
2023-01-17T10:16:05.400Z,47.17
2023-01-17T10:18:47.602Z,48.29
2023-01-17T10:21:15.055Z,46.54
2023-01-17T10:23:55.623Z,48.21
2023-01-17T10:26:26.299Z,49.80
2023-01-17T10:28:54.672Z,44.68
2023-01-17T10:31:25.778Z,45.81
2023-01-17T10:33:54.082Z,47.66
2023-01-17T10:36:22.376Z,47.23
2023-01-17T10:38:51.226Z,47.07
2023-01-17T10:41:21.704Z,42.96
2023-01-17T10:43:52.611Z,44.60
2023-01-17T10:46:21.644Z,43.01
2023-01-17T10:48:49.764Z,43.76
2023-01-17T10:51:35.118Z,42.87
2023-01-17T10:54:08.777Z,45.76
2023-01-17T10:56:35.929Z,45.63
2023-01-17T10:59:09.418Z,44.78
2023-01-17T11:01:36.636Z,43.31
2023-01-17T11:04:04.156Z,44.28
2023-01-17T11:06:33.243Z,43.59
2023-01-17T11:09:02.107Z,43.46
2023-01-17T11:11:31.881Z,46.32
2023-01-17T11:14:05.580Z,45.19
2023-01-17T11:16:33.007Z,44.59
2023-01-17T11:19:05.818Z,45.10
2023-01-17T11:21:33.322Z,44.88
2023-01-17T11:24:08.006Z,42.10
2023-01-17T11:26:35.531Z,42.73
2023-01-17T11:29:15.283Z,44.67
2023-01-17T11:31:42.738Z,43.68
2023-01-17T11:34:17.291Z,44.68
2023-01-17T11:36:44.836Z,44.09
2023-01-17T11:39:18.043Z,44.30
2023-01-17T11:41:46.123Z,44.17
2023-01-17T11:44:22.588Z,44.49
2023-01-17T11:47:02.501Z,44.93
2023-01-17T11:49:29.685Z,43.78
2023-01-17T11:51:57.156Z,44.11
2023-01-17T11:54:24.271Z,43.95
2023-01-17T11:56:56.776Z,45.73
2023-01-17T11:59:34.829Z,43.18
2023-01-17T12:02:20.765Z,42.00
2023-01-17T12:05:00.415Z,43.87
2023-01-17T12:07:38.272Z,43.21
2023-01-17T12:10:18.009Z,43.28
2023-01-17T12:13:04.165Z,42.85
2023-01-17T12:15:51.866Z,42.65
2023-01-17T12:18:51.519Z,42.53
2023-01-17T12:21:22.379Z,43.86
2023-01-17T12:24:08.383Z,42.49
2023-01-17T12:26:49.902Z,42.39
2023-01-17T12:29:29.231Z,43.95
2023-01-17T12:31:59.604Z,41.85
2023-01-17T12:34:29.742Z,40.79
2023-01-17T12:37:00.381Z,41.13
2023-01-17T12:39:31.289Z,41.17
2023-01-17T12:42:02.739Z,40.39
2023-01-17T12:44:33.651Z,37.52
2023-01-17T12:47:02.336Z,37.40
2023-01-17T12:49:48.392Z,40.56
2023-01-17T12:52:28.022Z,39.80
2023-01-17T12:54:56.242Z,41.33
2023-01-17T12:57:28.923Z,40.06
2023-01-17T12:59:56.088Z,41.06
2023-01-17T13:02:31.890Z,41.63
2023-01-17T13:05:01.161Z,40.99
2023-01-17T13:07:28.855Z,42.06
2023-01-17T13:09:59.195Z,42.38
2023-01-17T13:12:26.642Z,40.53
2023-01-17T13:14:54.081Z,41.35
2023-01-17T13:17:26.239Z,41.27
2023-01-17T13:19:56.923Z,40.13
2023-01-17T13:22:27.082Z,41.20
2023-01-17T13:25:00.573Z,40.73
2023-01-17T13:27:30.695Z,42.89
2023-01-17T13:30:16.684Z,44.37
2023-01-17T13:33:02.426Z,43.46
2023-01-17T13:35:43.636Z,43.44
2023-01-17T13:38:29.880Z,46.23
2023-01-17T13:41:15.720Z,45.08
2023-01-17T13:44:06.229Z,44.37
2023-01-17T13:46:52.464Z,43.08
2023-01-17T13:49:21.085Z,44.02
2023-01-17T13:52:12.440Z,42.94
2023-01-17T13:54:43.820Z,44.41
2023-01-17T13:57:24.448Z,43.08
2023-01-17T13:59:51.945Z,43.74
2023-01-17T14:02:31.572Z,45.61
2023-01-17T14:05:07.938Z,44.38
2023-01-17T14:07:42.855Z,43.63
2023-01-17T14:10:36.973Z,45.91
2023-01-17T14:13:04.747Z,47.16
2023-01-17T14:15:35.361Z,47.06
2023-01-17T14:18:03.527Z,48.95
2023-01-17T14:20:36.188Z,52.11
2023-01-17T14:23:05.511Z,50.78
2023-01-17T14:25:38.362Z,49.83
2023-01-17T14:28:29.751Z,49.75
2023-01-17T14:30:58.127Z,52.09
2023-01-17T14:33:27.712Z,52.23
2023-01-17T14:35:56.969Z,50.81
2023-01-17T14:38:31.724Z,51.16
2023-01-17T14:41:01.931Z,51.51
2023-01-17T14:43:29.755Z,50.64
2023-01-17T14:46:00.839Z,50.16
2023-01-17T14:48:28.403Z,51.27
2023-01-17T14:50:57.421Z,49.96
2023-01-17T14:53:31.386Z,52.57
2023-01-17T14:56:02.657Z,53.25
2023-01-17T14:58:33.214Z,52.67
2023-01-17T15:01:10.996Z,54.02
2023-01-17T15:03:44.365Z,52.43
2023-01-17T15:06:13.048Z,53.50
2023-01-17T15:08:40.246Z,53.67
2023-01-17T15:11:12.001Z,55.03
2023-01-17T15:13:44.687Z,55.73
2023-01-17T15:16:19.839Z,54.87
2023-01-17T15:18:47.670Z,55.82
2023-01-17T15:21:19.527Z,54.95
2023-01-17T15:23:47.720Z,53.83
2023-01-17T15:26:15.686Z,55.60
2023-01-17T15:28:44.812Z,55.12
2023-01-17T15:31:13.599Z,53.43
2023-01-17T15:33:42.500Z,54.53
2023-01-17T15:36:12.756Z,53.50
2023-01-17T15:38:40.622Z,54.85
2023-01-17T15:41:12.250Z,55.54
2023-01-17T15:43:39.640Z,55.46
2023-01-17T15:46:06.878Z,55.43
2023-01-17T15:48:41.823Z,54.83
2023-01-17T15:51:09.439Z,53.87
2023-01-17T15:53:37.904Z,54.75
2023-01-17T15:56:37.460Z,54.06
2023-01-17T15:59:28.375Z,54.89
2023-01-17T16:01:56.510Z,53.83
2023-01-17T16:04:28.537Z,51.72
2023-01-17T16:06:55.753Z,51.16
2023-01-17T16:09:23.311Z,50.07
2023-01-17T16:11:50.755Z,50.21
2023-01-17T16:14:17.917Z,49.69
2023-01-17T16:16:49.284Z,47.91
2023-01-17T16:19:16.707Z,48.43
2023-01-17T16:21:45.157Z,49.36
2023-01-17T16:24:12.329Z,48.69
2023-01-17T16:26:39.828Z,49.92
2023-01-17T16:29:08.215Z,51.03
2023-01-17T16:31:36.154Z,50.32
2023-01-17T16:34:09.135Z,53.53
2023-01-17T16:36:37.273Z,51.07
2023-01-17T16:39:05.067Z,51.11
2023-01-17T16:41:32.537Z,54.07
2023-01-17T16:44:00.993Z,54.84
2023-01-17T16:46:29.496Z,55.51
2023-01-17T16:48:56.936Z,57.29
2023-01-17T16:51:24.125Z,57.75
2023-01-17T16:53:51.681Z,58.06
2023-01-17T16:56:19.710Z,60.21
2023-01-17T16:58:46.996Z,59.59
2023-01-17T17:01:16.032Z,60.60
2023-01-17T17:03:43.848Z,60.62
2023-01-17T17:06:11.409Z,62.87
2023-01-17T17:08:39.799Z,62.53
2023-01-17T17:11:17.488Z,62.55
2023-01-17T17:13:45.651Z,63.60
2023-01-17T17:16:18.630Z,64.56
2023-01-17T17:18:48.959Z,63.55
2023-01-17T17:21:16.329Z,64.47
2023-01-17T17:23:43.949Z,66.85
2023-01-17T17:26:11.673Z,66.90
2023-01-17T17:28:39.005Z,68.17
2023-01-17T17:31:08.800Z,67.97
2023-01-17T17:33:37.043Z,65.20
2023-01-17T17:36:05.568Z,65.38
2023-01-17T17:38:35.316Z,66.03
2023-01-17T17:41:07.079Z,64.44
2023-01-17T17:43:38.687Z,64.41
2023-01-17T17:46:06.763Z,64.10
2023-01-17T17:48:34.294Z,63.24
2023-01-17T17:51:06.464Z,61.96
2023-01-17T17:53:35.001Z,60.12
2023-01-17T17:56:03.990Z,64.65
2023-01-17T17:58:32.629Z,63.75
2023-01-17T18:01:04.497Z,64.26
2023-01-17T18:03:32.982Z,63.58
2023-01-17T18:06:01.301Z,63.60
2023-01-17T18:08:33.677Z,60.32
2023-01-17T18:11:02.551Z,60.91
2023-01-17T18:13:31.177Z,59.46
2023-01-17T18:16:07.709Z,59.33
2023-01-17T18:18:37.290Z,61.25
2023-01-17T18:21:15.232Z,59.94
2023-01-17T18:23:44.932Z,59.52
2023-01-17T18:26:19.594Z,56.73
2023-01-17T18:28:49.887Z,57.61
2023-01-17T18:31:17.915Z,57.25
2023-01-17T18:33:45.616Z,56.30
2023-01-17T18:36:14.243Z,56.82
2023-01-17T18:38:44.975Z,58.57
2023-01-17T18:41:14.615Z,59.10
2023-01-17T18:43:43.687Z,59.13
2023-01-17T18:46:12.707Z,61.20
2023-01-17T18:48:42.642Z,60.58
2023-01-17T18:51:11.882Z,59.18
2023-01-17T18:53:40.149Z,57.12
2023-01-17T18:56:09.085Z,58.42
2023-01-17T18:58:41.251Z,58.13
2023-01-17T19:01:11.752Z,60.53
2023-01-17T19:03:41.957Z,58.74
2023-01-17T19:06:13.347Z,59.15
2023-01-17T19:08:42.289Z,57.54
2023-01-17T19:11:11.532Z,56.73
2023-01-17T19:13:45.600Z,57.84
2023-01-17T19:16:15.877Z,58.67
2023-01-17T19:18:44.274Z,57.88
2023-01-17T19:21:14.715Z,59.24
2023-01-17T19:23:46.449Z,59.24
2023-01-17T19:26:20.529Z,61.69
2023-01-17T19:28:49.736Z,62.69
2023-01-17T19:31:19.169Z,62.96
2023-01-17T19:33:48.004Z,63.33
2023-01-17T19:36:18.843Z,61.58
2023-01-17T19:39:02.893Z,58.71
2023-01-17T19:41:35.158Z,58.89
2023-01-17T19:44:05.119Z,57.20
2023-01-17T19:46:34.157Z,61.19
2023-01-17T19:49:02.473Z,61.74
2023-01-17T19:51:30.531Z,59.71
2023-01-17T19:54:01.662Z,60.59
2023-01-17T19:56:30.256Z,59.20
2023-01-17T19:59:01.994Z,61.95
2023-01-17T20:01:31.531Z,62.79
2023-01-17T20:04:01.336Z,61.09
2023-01-17T20:06:30.693Z,62.02
2023-01-17T20:08:58.773Z,60.50
2023-01-17T20:11:27.743Z,63.18
2023-01-17T20:13:56.818Z,62.24
2023-01-17T20:16:27.763Z,59.46
2023-01-17T20:18:57.490Z,64.36
2023-01-17T20:21:26.521Z,64.55
2023-01-17T20:23:54.852Z,62.78
2023-01-17T20:26:24.776Z,63.11
2023-01-17T20:28:53.824Z,62.95
2023-01-17T20:31:22.292Z,61.92
2023-01-17T20:33:51.261Z,61.71
2023-01-17T20:36:19.743Z,63.30
2023-01-17T20:38:49.113Z,65.93
2023-01-17T20:41:18.106Z,64.89
2023-01-17T20:43:47.688Z,63.63
2023-01-17T20:46:15.779Z,69.54
2023-01-17T20:48:45.064Z,66.93
2023-01-17T20:51:13.606Z,66.57
2023-01-17T20:53:42.074Z,65.95
2023-01-17T20:56:13.185Z,63.00
2023-01-17T20:58:41.475Z,62.22
2023-01-17T21:01:09.575Z,64.22
2023-01-17T21:03:41.271Z,65.92
2023-01-17T21:06:10.830Z,65.24
2023-01-17T21:08:40.862Z,68.37
2023-01-17T21:11:09.049Z,68.92
2023-01-17T21:13:36.544Z,67.40
2023-01-17T21:16:04.305Z,66.23
2023-01-17T21:18:32.038Z,67.06
2023-01-17T21:21:03.194Z,67.75
2023-01-17T21:23:31.181Z,68.54
2023-01-17T21:25:58.664Z,67.64
2023-01-17T21:28:27.279Z,71.50
2023-01-17T21:30:55.237Z,69.48
2023-01-17T21:33:23.241Z,69.37
2023-01-17T21:35:50.582Z,69.83
2023-01-17T21:38:18.351Z,69.27
2023-01-17T21:40:45.830Z,68.10
2023-01-17T21:43:13.473Z,69.92
2023-01-17T21:45:41.595Z,71.47
2023-01-17T21:48:12.246Z,70.90
2023-01-17T21:50:39.749Z,68.26
2023-01-17T21:53:07.747Z,67.43
2023-01-17T21:55:53.668Z,70.02
2023-01-17T21:58:39.987Z,70.39
2023-01-17T22:01:25.311Z,70.13
2023-01-17T22:03:53.813Z,70.50
2023-01-17T22:06:21.749Z,68.24
2023-01-17T22:08:48.930Z,68.70
2023-01-17T22:11:17.456Z,66.36
2023-01-17T22:13:44.932Z,65.25
2023-01-17T22:16:16.351Z,65.42
2023-01-17T22:18:44.487Z,64.94
2023-01-17T22:21:16.666Z,63.46
2023-01-17T22:23:48.966Z,62.09
2023-01-17T22:26:16.239Z,64.00
2023-01-17T22:28:43.949Z,64.99
2023-01-17T22:31:16.331Z,64.64
2023-01-17T22:33:44.625Z,62.52
2023-01-17T22:36:13.764Z,62.57
2023-01-17T22:38:41.622Z,64.41
2023-01-17T22:41:13.149Z,61.05
2023-01-17T22:43:41.310Z,57.84
2023-01-17T22:46:10.079Z,57.25
2023-01-17T22:48:37.512Z,56.91
2023-01-17T22:51:05.949Z,57.28
2023-01-17T22:53:33.398Z,58.02
2023-01-17T22:56:07.292Z,57.42
2023-01-17T22:58:34.832Z,56.61
2023-01-17T23:01:08.570Z,55.21
2023-01-17T23:03:36.244Z,56.16
2023-01-17T23:06:09.607Z,55.01
2023-01-17T23:08:37.251Z,53.45
2023-01-17T23:11:27.065Z,53.12
2023-01-17T23:13:54.501Z,52.25
2023-01-17T23:16:41.331Z,51.41
2023-01-17T23:19:23.931Z,57.78
2023-01-17T23:22:10.809Z,54.66
2023-01-17T23:24:43.293Z,52.67
2023-01-17T23:27:35.666Z,51.82
2023-01-17T23:30:08.192Z,51.32
2023-01-17T23:32:35.538Z,50.59
2023-01-17T23:35:03.118Z,49.94
2023-01-17T23:37:50.472Z,49.24
2023-01-17T23:40:19.059Z,49.31
2023-01-17T23:43:05.119Z,48.28
2023-01-17T23:45:36.284Z,47.68
2023-01-17T23:48:05.632Z,47.49
2023-01-17T23:50:33.132Z,48.02
2023-01-17T23:53:00.489Z,47.90
2023-01-17T23:55:27.699Z,47.61
2023-01-17T23:57:56.041Z,47.36
